Time;durP1;ratioP1;P1;durP2;ratioP2;P2;SDS_P1;SDS_P2;PMS_P1;PMS_P2;Temp;Humidity;BMP_temperature;BMP_pressure;BME280_temperature;BME280_humidity;BME280_pressure;Samples;Min_cycle;Max_cycle;Signal;HPM_P1;HPM_P2
2022/07/25 00:00:00;;;;;;;19.25;11.32;;;;;;;25.61;66.15;94804.69;4951004;28;20916;-79
2022/07/25 00:02:27;;;;;;;18.33;10.98;;;;;;;25.63;66.29;94801.69;4949215;28;20206;-79
2022/07/25 00:04:54;;;;;;;46.00;11.90;;;;;;;25.62;66.63;94795.63;4952136;28;20205;-78
2022/07/25 00:07:21;;;;;;;16.20;10.88;;;;;;;25.62;66.73;94792.94;4950150;28;20231;-79
2022/07/25 00:09:48;;;;;;;14.57;10.13;;;;;;;25.61;66.71;94791.38;4949188;28;20208;-79
2022/07/25 00:12:16;;;;;;;21.65;14.98;;;;;;;25.65;66.90;94795.00;4949639;28;20201;-78
2022/07/25 00:14:43;;;;;;;15.60;10.40;;;;;;;25.65;66.31;94796.88;4951926;28;20205;-78
2022/07/25 00:17:10;;;;;;;15.05;11.00;;;;;;;25.62;66.63;94795.63;4953428;28;20211;-79
2022/07/25 00:19:37;;;;;;;17.17;10.63;;;;;;;25.53;67.15;94786.81;4950047;28;20688;-78
2022/07/25 00:22:04;;;;;;;14.23;10.32;;;;;;;25.54;66.92;94788.38;4951380;28;20760;-79
2022/07/25 00:24:31;;;;;;;15.40;10.85;;;;;;;25.50;67.36;94779.44;4948714;28;20213;-78
2022/07/25 00:26:58;;;;;;;16.02;10.23;;;;;;;25.58;66.38;94786.66;4948378;28;20225;-79
2022/07/25 00:29:26;;;;;;;13.80;10.85;;;;;;;25.54;66.53;94777.72;4953211;28;20209;-77
2022/07/25 00:31:53;;;;;;;14.40;10.65;;;;;;;25.49;66.91;94788.50;4953860;28;20806;-78
2022/07/25 00:34:20;;;;;;;16.02;10.23;;;;;;;25.42;67.28;94783.59;4953046;28;20301;-78
2022/07/25 00:36:47;;;;;;;14.55;10.75;;;;;;;25.32;67.50;94775.88;4950482;28;20699;-77
2022/07/25 00:39:14;;;;;;;14.43;11.18;;;;;;;25.33;67.74;94779.34;4952696;28;20202;-78
2022/07/25 00:41:43;;;;;;;11.43;10.18;;;;;;;25.37;67.80;94764.31;4951048;28;20451;-78
2022/07/25 00:44:10;;;;;;;13.35;11.00;;;;;;;25.18;68.30;94761.91;4952973;28;20264;-77
2022/07/25 00:46:39;;;;;;;16.30;10.77;;;;;;;25.00;68.73;94764.78;4948709;28;20236;-78
2022/07/25 00:49:06;;;;;;;17.00;11.50;;;;;;;24.91;69.41;94769.25;4949714;28;20210;-78
2022/07/25 00:51:33;;;;;;;18.85;11.27;;;;;;;24.89;69.95;94772.22;4951108;28;20245;-79
2022/07/25 00:54:00;;;;;;;13.88;11.68;;;;;;;24.86;70.02;94766.72;4952618;28;20250;-79
2022/07/25 00:56:27;;;;;;;17.15;11.32;;;;;;;24.75;70.33;94760.84;4952348;28;20206;-78
2022/07/25 00:58:55;;;;;;;15.10;11.60;;;;;;;24.66;71.34;94765.34;4949675;28;20259;-78
2022/07/25 01:01:21;;;;;;;19.98;11.68;;;;;;;24.50;71.38;94766.78;4951932;28;20216;-78
2022/07/25 01:04:08;;;;;;;13.20;10.55;;;;;;;24.49;71.84;94770.53;4954857;28;20591;-78
2022/07/25 01:06:35;;;;;;;15.07;11.32;;;;;;;24.39;72.29;94766.22;4951045;28;20233;-78
2022/07/25 01:09:02;;;;;;;14.88;10.88;;;;;;;24.43;72.63;94761.09;4952898;28;20209;-79
2022/07/25 01:11:29;;;;;;;13.25;11.13;;;;;;;24.46;71.86;94769.28;4954221;28;20217;-79
2022/07/25 01:13:56;;;;;;;15.40;11.30;;;;;;;24.51;71.29;94766.47;4952587;28;20216;-78
2022/07/25 01:16:23;;;;;;;12.73;11.43;;;;;;;24.38;71.63;94764.69;4950527;28;20213;-78
2022/07/25 01:18:49;;;;;;;14.30;11.50;;;;;;;24.09;73.39;94761.59;4954014;28;20205;-78
2022/07/25 01:21:18;;;;;;;15.50;11.15;;;;;;;24.07;73.60;94763.78;4949104;28;20611;-76
2022/07/25 01:23:44;;;;;;;16.98;11.23;;;;;;;23.95;73.44;94751.00;4950820;28;20291;-78
2022/07/25 01:26:11;;;;;;;14.02;10.90;;;;;;;24.03;73.46;94765.44;4949626;28;20237;-79
2022/07/25 01:28:38;;;;;;;16.45;11.07;;;;;;;23.95;73.92;94764.28;4952176;28;21030;-79
2022/07/25 01:31:06;;;;;;;16.17;10.77;;;;;;;23.95;73.90;94763.50;4954597;28;20221;-79
2022/07/25 01:33:33;;;;;;;19.58;11.40;;;;;;;23.92;74.66;94761.44;4955097;28;20220;-79
2022/07/25 01:36:00;;;;;;;15.80;11.52;;;;;;;24.05;73.31;94752.63;4950392;28;20202;-79
2022/07/25 01:38:28;;;;;;;17.95;11.43;;;;;;;24.16;72.87;94764.63;4951389;28;20206;-79
2022/07/25 01:40:55;;;;;;;16.35;11.20;;;;;;;24.10;73.27;94769.28;4947005;28;20617;-80
2022/07/25 01:43:22;;;;;;;12.80;11.25;;;;;;;24.19;72.15;94766.69;4954397;28;20296;-80
2022/07/25 01:45:49;;;;;;;15.00;10.98;;;;;;;24.30;71.71;94767.28;4950760;28;20213;-80
2022/07/25 01:48:15;;;;;;;15.10;11.15;;;;;;;24.27;71.94;94763.34;4951023;28;20683;-80
2022/07/25 01:50:42;;;;;;;15.95;10.98;;;;;;;24.32;71.18;94771.19;4952280;28;20245;-79
2022/07/25 01:53:09;;;;;;;16.08;10.90;;;;;;;24.34;71.42;94763.69;4952881;28;20217;-80
2022/07/25 01:55:37;;;;;;;18.58;10.98;;;;;;;24.41;70.95;94771.25;4953826;28;20217;-80
2022/07/25 01:58:04;;;;;;;15.05;11.07;;;;;;;24.45;70.72;94774.88;4951378;28;20201;-80
2022/07/25 02:00:31;;;;;;;14.02;11.43;;;;;;;24.47;70.81;94772.72;4951453;28;20196;-79
2022/07/25 02:05:42;;;;;;;12.50;10.70;;;;;;;24.36;70.48;94772.16;4953188;28;20914;-80
2022/07/25 02:08:09;;;;;;;14.55;10.90;;;;;;;24.25;70.87;94776.13;4952176;28;20212;-79
2022/07/25 02:10:37;;;;;;;15.45;10.88;;;;;;;24.12;71.60;94763.69;4950793;28;21017;-79
2022/07/25 02:13:04;;;;;;;14.57;11.45;;;;;;;24.05;71.53;94768.56;4952659;28;20216;-79
2022/07/25 02:15:31;;;;;;;12.35;11.05;;;;;;;24.00;71.52;94758.06;4952095;28;20209;-79
2022/07/25 02:17:58;;;;;;;18.20;11.50;;;;;;;24.09;71.66;94773.00;4950407;28;20634;-80
2022/07/25 02:20:25;;;;;;;14.57;11.70;;;;;;;24.07;71.97;94775.16;4951040;28;20205;-79
2022/07/25 02:22:51;;;;;;;13.60;11.38;;;;;;;24.09;72.65;94774.88;4949340;29;20213;-79
2022/07/25 02:25:18;;;;;;;14.57;12.10;;;;;;;24.09;72.38;94775.66;4948941;28;20213;-80
2022/07/25 02:27:46;;;;;;;15.18;11.20;;;;;;;24.02;72.70;94775.28;4950291;28;20221;-79
2022/07/25 02:30:14;;;;;;;14.32;11.10;;;;;;;23.99;72.38;94786.50;4953959;28;20242;-79
2022/07/25 02:32:40;;;;;;;15.10;10.52;;;;;;;23.92;72.47;94778.16;4950631;28;20201;-80
2022/07/25 02:35:08;;;;;;;14.93;10.95;;;;;;;23.95;72.70;94779.44;4952536;28;20209;-79
2022/07/25 02:37:35;;;;;;;17.83;12.30;;;;;;;23.97;72.42;94775.38;4950814;28;20760;-79
2022/07/25 02:40:02;;;;;;;17.05;12.15;;;;;;;23.99;73.50;94772.41;4947601;28;20213;-78
2022/07/25 02:42:29;;;;;;;17.90;11.25;;;;;;;23.94;74.25;94765.34;4949736;28;20216;-79
2022/07/25 02:44:57;;;;;;;14.73;11.82;;;;;;;23.78;75.42;94744.75;4951311;28;20583;-79
2022/07/25 02:47:24;;;;;;;16.42;11.30;;;;;;;23.77;76.22;94765.19;4951225;28;20225;-79
2022/07/25 02:49:51;;;;;;;14.52;10.85;;;;;;;23.76;75.81;94762.81;4952007;28;20209;-79
2022/07/25 02:52:17;;;;;;;15.15;11.57;;;;;;;23.75;74.47;94767.38;4949818;28;20245;-80
2022/07/25 02:54:44;;;;;;;15.90;11.93;;;;;;;23.66;75.09;94769.91;4951024;28;20264;-80
2022/07/25 02:57:11;;;;;;;16.63;11.57;;;;;;;23.61;74.62;94769.22;4951522;28;20233;-80
2022/07/25 02:59:38;;;;;;;17.73;12.50;;;;;;;23.54;74.70;94761.69;4951389;28;20214;-79
2022/07/25 03:02:06;;;;;;;15.95;11.77;;;;;;;23.53;74.58;94776.03;4950755;28;20217;-80
2022/07/25 03:04:33;;;;;;;13.73;11.35;;;;;;;23.52;74.48;94779.75;4952764;28;20684;-79
2022/07/25 03:07:00;;;;;;;15.80;11.88;;;;;;;23.52;74.00;94777.09;4949510;28;20221;-80
2022/07/25 03:09:27;;;;;;;16.35;12.20;;;;;;;23.51;74.07;94766.78;4950889;28;20204;-79
2022/07/25 03:11:54;;;;;;;19.60;12.68;;;;;;;23.50;73.51;94771.31;4952025;28;20204;-79
2022/07/25 03:14:20;;;;;;;24.67;12.20;;;;;;;23.49;73.14;94771.63;4952705;28;20209;-79
2022/07/25 03:16:47;;;;;;;17.77;11.57;;;;;;;23.51;73.28;94778.19;4948825;28;20208;-80
2022/07/25 03:19:16;;;;;;;17.92;11.38;;;;;;;23.47;73.37;94771.09;4951642;28;20587;-79
2022/07/25 03:21:43;;;;;;;17.17;11.73;;;;;;;23.43;73.26;94778.91;4947736;28;20977;-79
2022/07/25 03:24:10;;;;;;;16.67;12.20;;;;;;;23.37;73.80;94782.69;4950227;28;20212;-79
2022/07/25 03:26:37;;;;;;;17.20;11.90;;;;;;;23.31;74.45;94775.13;4948407;28;20237;-79
2022/07/25 03:29:06;;;;;;;15.30;11.98;;;;;;;23.28;74.09;94776.50;4950020;28;20680;-79
2022/07/25 03:31:33;;;;;;;16.25;11.57;;;;;;;23.25;74.19;94773.63;4947290;28;20217;-79
2022/07/25 03:34:00;;;;;;;15.93;11.75;;;;;;;23.23;74.80;94776.59;4951948;28;20208;-78
2022/07/25 03:36:28;;;;;;;22.17;11.10;;;;;;;23.24;74.22;94772.84;4951000;28;20208;-79
2022/07/25 03:38:56;;;;;;;18.00;11.23;;;;;;;23.28;74.25;94784.44;4952761;28;20683;-81
2022/07/25 03:41:23;;;;;;;16.88;11.45;;;;;;;23.33;74.13;94780.91;4950178;28;20205;-80
2022/07/25 03:43:50;;;;;;;16.48;11.68;;;;;;;23.27;74.04;94774.91;4949922;28;20212;-80
2022/07/25 03:46:17;;;;;;;15.75;11.15;;;;;;;23.34;73.47;94774.53;4949369;28;20603;-80
2022/07/25 03:48:43;;;;;;;15.98;11.10;;;;;;;23.29;73.70;94764.78;4948841;28;20209;-78
2022/07/25 03:51:10;;;;;;;18.08;10.52;;;;;;;23.30;73.49;94776.97;4950157;28;20248;-78
2022/07/25 03:56:19;;;;;;;15.60;11.32;;;;;;;23.25;73.21;94785.03;4948791;28;20245;-79
2022/07/25 03:58:46;;;;;;;13.82;11.23;;;;;;;23.26;73.01;94778.63;4950815;28;20627;-79
2022/07/25 04:01:13;;;;;;;14.15;10.88;;;;;;;23.22;73.14;94780.31;4954100;28;20213;-79
2022/07/25 04:03:40;;;;;;;20.38;11.25;;;;;;;23.17;73.50;94780.41;4955447;28;20212;-81
2022/07/25 04:06:06;;;;;;;14.07;11.50;;;;;;;23.22;72.91;94784.81;4961637;28;20273;-80
2022/07/25 04:08:33;;;;;;;13.80;10.65;;;;;;;23.22;73.06;94784.81;4963799;28;20716;-81
2022/07/25 04:11:02;;;;;;;13.80;10.70;;;;;;;23.18;73.00;94780.09;4962572;28;20213;-80
2022/07/25 04:13:29;;;;;;;16.77;11.70;;;;;;;23.27;72.70;94782.88;4960088;28;20714;-81
2022/07/25 04:15:56;;;;;;;16.08;12.75;;;;;;;23.32;72.49;94785.41;4958735;28;20211;-82
2022/07/25 04:18:22;;;;;;;17.17;11.57;;;;;;;23.33;72.35;94778.25;4955349;29;20209;-82
2022/07/25 04:20:51;;;;;;;18.77;11.27;;;;;;;23.31;71.91;94781.22;4965197;28;20211;-81
2022/07/25 04:23:17;;;;;;;14.52;11.13;;;;;;;23.32;72.06;94777.47;4958207;28;20214;-80
2022/07/25 04:25:44;;;;;;;14.90;10.57;;;;;;;23.25;71.46;94777.06;4961672;28;20209;-79
2022/07/25 04:28:12;;;;;;;16.92;10.65;;;;;;;23.21;71.90;94785.91;4959158;28;20229;-81
2022/07/25 04:30:39;;;;;;;17.27;10.73;;;;;;;23.20;72.10;94779.03;4954582;28;20208;-80
2022/07/25 04:33:06;;;;;;;18.10;10.25;;;;;;;23.18;71.84;94777.47;4933581;28;20297;-80
2022/07/25 04:35:33;;;;;;;16.13;10.43;;;;;;;23.21;71.28;94772.63;4957701;28;20213;-80
2022/07/25 04:38:00;;;;;;;14.02;10.27;;;;;;;23.29;70.97;94779.94;4957394;28;20233;-78
2022/07/25 04:40:27;;;;;;;13.65;9.57;;;;;;;23.31;70.82;94775.13;4954746;29;20212;-79
2022/07/25 04:42:54;;;;;;;15.02;9.93;;;;;;;23.25;70.89;94779.72;4956892;29;20225;-79
2022/07/25 04:45:23;;;;;;;14.40;9.63;;;;;;;23.24;70.25;94778.16;4956566;28;20209;-80
2022/07/25 04:47:50;;;;;;;12.43;9.88;;;;;;;23.26;69.92;94770.66;4957406;28;20232;-79
2022/07/25 04:50:17;;;;;;;15.45;10.00;;;;;;;23.24;69.75;94767.53;4952384;28;20668;-80
2022/07/25 04:52:44;;;;;;;15.38;9.50;;;;;;;23.24;70.32;94774.69;4957470;28;20216;-80
2022/07/25 04:55:11;;;;;;;17.00;10.55;;;;;;;23.11;71.33;94779.72;4953397;28;20252;-80
2022/07/25 04:57:38;;;;;;;12.60;9.43;;;;;;;23.11;70.39;94789.53;4953089;28;20217;-80
2022/07/25 05:00:08;;;;;;;18.08;9.20;;;;;;;23.17;70.75;94780.41;4951172;29;20214;-81
2022/07/25 05:02:36;;;;;;;11.13;9.40;;;;;;;23.15;70.39;94775.38;4952727;28;20213;-80
2022/07/25 05:05:05;;;;;;;14.75;9.57;;;;;;;23.13;70.37;94782.06;4955278;28;21554;-81
2022/07/25 05:07:32;;;;;;;11.70;9.25;;;;;;;23.24;69.66;94782.66;4952558;29;20273;-85
2022/07/25 05:09:59;;;;;;;16.77;9.23;;;;;;;23.35;68.72;94786.72;4953417;29;20704;-80
2022/07/25 05:12:25;;;;;;;11.27;9.40;;;;;;;23.39;69.23;94782.41;4951967;28;20206;-80
2022/07/25 05:14:53;;;;;;;12.73;9.32;;;;;;;23.35;69.83;94779.53;4954358;28;20208;-81
2022/07/25 05:17:19;;;;;;;10.60;8.80;;;;;;;23.34;69.59;94774.53;4953173;29;20205;-80
2022/07/25 05:19:48;;;;;;;11.55;9.32;;;;;;;23.36;69.65;94780.31;4952486;29;20206;-79
2022/07/25 05:22:14;;;;;;;13.77;9.27;;;;;;;23.35;69.57;94771.56;4954176;28;20296;-81
2022/07/25 05:24:41;;;;;;;13.82;9.63;;;;;;;23.48;68.29;94781.44;4953394;28;20209;-80
2022/07/25 05:27:08;;;;;;;15.38;9.15;;;;;;;23.50;68.62;94784.56;4953479;28;20225;-80
2022/07/25 05:29:35;;;;;;;12.55;9.07;;;;;;;23.57;68.46;94787.63;4950497;28;20217;-82
2022/07/25 05:32:02;;;;;;;13.98;9.25;;;;;;;23.62;68.60;94782.22;4951889;28;20216;-80
2022/07/25 05:34:29;;;;;;;14.05;9.32;;;;;;;23.69;67.57;94784.47;4953776;28;20213;-77
2022/07/25 05:36:57;;;;;;;10.43;9.07;;;;;;;23.58;68.40;94780.44;4954541;28;20215;-80
2022/07/25 05:39:24;;;;;;;13.07;9.55;;;;;;;23.67;67.17;94781.31;4945300;29;20217;-80
2022/07/25 05:41:51;;;;;;;14.45;8.57;;;;;;;23.57;68.08;94784.97;4955247;28;20208;-80
2022/07/25 05:44:17;;;;;;;11.95;9.05;;;;;;;23.59;68.81;94782.81;4949207;28;20205;-76
2022/07/25 05:46:45;;;;;;;13.02;9.00;;;;;;;23.71;68.13;94790.28;4948874;28;20220;-88
2022/07/25 05:49:12;;;;;;;11.45;9.32;;;;;;;23.76;68.14;94784.84;4953506;29;20233;-89
2022/07/25 05:51:39;;;;;;;10.07;8.32;;;;;;;23.87;67.05;94780.91;4950587;28;20244;-89
2022/07/25 05:54:07;;;;;;;12.95;8.63;;;;;;;23.95;66.13;94782.09;4952044;28;20321;-83
2022/07/25 05:56:34;;;;;;;12.85;9.85;;;;;;;23.99;65.83;94783.84;4951355;29;20233;-79
2022/07/25 05:59:01;;;;;;;11.32;8.95;;;;;;;23.91;65.69;94776.56;4953134;28;20224;-79
2022/07/25 06:01:28;;;;;;;12.32;8.80;;;;;;;24.07;65.61;94779.72;4951456;28;20294;-79
2022/07/25 06:03:54;;;;;;;11.95;9.05;;;;;;;24.16;64.49;94788.53;4951475;28;20212;-80
2022/07/25 06:06:21;;;;;;;11.40;8.85;;;;;;;24.18;64.57;94776.53;4950383;28;20204;-80
2022/07/25 06:08:48;;;;;;;14.05;9.27;;;;;;;24.20;65.06;94778.91;4945717;28;20309;-80
2022/07/25 06:11:16;;;;;;;10.60;8.88;;;;;;;24.23;64.92;94779.09;4954934;28;20658;-80
2022/07/25 06:13:43;;;;;;;10.75;8.93;;;;;;;24.29;64.16;94774.44;4950082;28;20213;-81
2022/07/25 06:16:10;;;;;;;14.05;8.90;;;;;;;24.33;64.40;94771.97;4953344;28;20284;-81
2022/07/25 06:18:37;;;;;;;13.82;8.32;;;;;;;24.35;64.10;94785.75;4950999;28;20712;-81
2022/07/25 06:21:05;;;;;;;10.00;8.77;;;;;;;24.43;64.20;94780.50;4947303;28;20217;-81
2022/07/25 06:23:32;;;;;;;10.30;8.52;;;;;;;24.50;63.25;94778.19;4950807;28;20205;-81
2022/07/25 06:25:59;;;;;;;11.48;8.95;;;;;;;24.57;62.73;94772.47;4953574;28;20197;-80
2022/07/25 06:28:27;;;;;;;13.95;9.70;;;;;;;24.68;61.99;94774.56;4951190;28;20237;-80
2022/07/25 06:30:54;;;;;;;13.10;8.98;;;;;;;24.77;61.67;94767.44;4954216;28;20205;-80
2022/07/25 06:33:21;;;;;;;12.20;9.43;;;;;;;24.77;60.98;94769.31;4952875;28;20205;-79
2022/07/25 06:35:48;;;;;;;14.10;9.65;;;;;;;24.91;60.42;94777.22;4951592;28;20206;-80
2022/07/25 06:38:14;;;;;;;15.13;9.43;;;;;;;24.87;61.14;94776.28;4948452;29;20205;-80
2022/07/25 06:40:41;;;;;;;12.05;9.02;;;;;;;24.81;60.79;94765.00;4950806;28;20216;-79
2022/07/25 06:43:08;;;;;;;11.98;8.43;;;;;;;24.89;61.35;94774.88;4951514;28;20205;-81
2022/07/25 06:45:36;;;;;;;14.05;9.07;;;;;;;24.91;61.02;94770.03;4950897;28;20209;-87
2022/07/25 06:48:04;;;;;;;10.85;7.63;;;;;;;25.04;62.49;94768.41;4947968;29;20946;-80
2022/07/25 06:50:32;;;;;;;13.52;8.90;;;;;;;25.09;61.22;94761.06;4954508;28;20318;-85
2022/07/25 06:52:59;;;;;;;12.02;9.18;;;;;;;25.29;59.61;94765.06;4956141;28;20213;-83
2022/07/25 06:55:25;;;;;;;10.95;7.82;;;;;;;25.35;60.62;94761.19;4955967;28;20205;-84
2022/07/25 06:57:52;;;;;;;12.38;9.15;;;;;;;25.40;58.65;94751.19;4951737;28;20205;-82
2022/07/25 07:00:19;;;;;;;11.73;9.30;;;;;;;25.42;58.81;94758.88;4953799;28;20206;-82
2022/07/25 07:02:54;;;;;;;10.52;9.10;;;;;;;25.38;57.87;94740.06;4948911;28;20201;-81
2022/07/25 07:05:28;;;;;;;11.65;8.88;;;;;;;25.47;58.67;94764.06;4949746;28;20211;-78
2022/07/25 07:07:56;;;;;;;11.85;9.27;;;;;;;25.32;58.37;94727.19;4953377;28;20320;-84
2022/07/25 07:10:23;;;;;;;11.70;9.18;;;;;;;25.37;59.21;94737.69;4952708;28;20251;-83
2022/07/25 07:12:50;;;;;;;9.90;8.90;;;;;;;25.58;58.22;94753.91;4950046;29;20202;-84
2022/07/25 07:15:21;;;;;;;11.75;8.77;;;;;;;25.63;57.32;94757.22;4951312;28;20209;-81
2022/07/25 07:17:53;;;;;;;12.38;8.77;;;;;;;25.67;56.76;94754.72;4951468;28;20205;-81
2022/07/25 07:20:20;;;;;;;13.40;9.10;;;;;;;25.69;57.00;94752.53;4952145;28;20732;-83
2022/07/25 07:22:56;;;;;;;11.65;9.15;;;;;;;25.78;56.63;94753.34;4953146;28;20209;-81
2022/07/25 07:25:23;;;;;;;10.63;9.43;;;;;;;25.86;55.49;94748.03;4952246;28;20582;-80
2022/07/25 07:27:51;;;;;;;10.00;8.88;;;;;;;25.74;55.30;94742.53;4951446;28;20347;-82
2022/07/25 07:30:19;;;;;;;9.98;7.97;;;;;;;25.86;56.60;94750.69;4947684;28;20216;-83
2022/07/25 07:32:46;;;;;;;10.05;8.60;;;;;;;25.94;54.91;94746.50;4952165;28;20210;-81
2022/07/25 07:35:17;;;;;;;12.80;9.18;;;;;;;26.05;54.52;94744.31;4947349;28;20217;-82
2022/07/25 07:37:45;;;;;;;13.75;9.30;;;;;;;26.11;55.50;94743.06;4955384;28;20204;-85
2022/07/25 07:40:13;;;;;;;13.32;9.05;;;;;;;26.26;55.52;94755.97;4948618;28;20202;-84
2022/07/25 07:42:42;;;;;;;12.18;9.57;;;;;;;26.37;52.63;94750.00;4954984;28;20205;-84
2022/07/25 07:45:13;;;;;;;10.77;9.40;;;;;;;26.30;52.12;94744.34;4959319;28;20205;-83
2022/07/25 07:47:40;;;;;;;11.05;8.88;;;;;;;26.36;52.29;94748.41;4957741;28;20212;-83
2022/07/25 07:50:08;;;;;;;11.50;9.60;;;;;;;26.37;51.41;94741.22;4954424;28;20201;-84
2022/07/25 07:52:36;;;;;;;10.13;8.90;;;;;;;26.40;52.02;94741.38;4950411;28;20209;-83
2022/07/25 07:57:48;;;;;;;12.48;9.10;;;;;;;26.91;50.94;94745.06;4953902;28;20279;-80
2022/07/25 08:00:17;;;;;;;12.00;9.15;;;;;;;26.91;49.59;94750.41;4955330;28;20198;-80
2022/07/25 08:02:45;;;;;;;10.27;9.05;;;;;;;26.82;50.87;94739.75;4954782;28;20646;-81
2022/07/25 08:05:13;;;;;;;14.02;9.32;;;;;;;26.90;50.36;94754.94;4958323;28;20209;-83
2022/07/25 08:07:41;;;;;;;13.27;9.55;;;;;;;26.96;49.56;94748.34;4957618;28;20205;-85
2022/07/25 08:10:09;;;;;;;9.48;8.48;;;;;;;27.04;49.06;94752.88;4963428;28;20603;-85
2022/07/25 08:12:41;;;;;;;10.88;8.73;;;;;;;27.07;49.41;94740.78;4958331;28;20276;-85
2022/07/25 08:15:09;;;;;;;11.25;8.95;;;;;;;27.17;49.09;94742.31;4959064;28;20201;-84
2022/07/25 08:17:36;;;;;;;10.80;9.40;;;;;;;27.16;48.48;94736.19;4952414;28;20760;-84
2022/07/25 08:20:07;;;;;;;13.27;9.00;;;;;;;27.18;48.41;94735.88;4955911;28;20218;-84
2022/07/25 08:22:39;;;;;;;12.75;9.25;;;;;;;27.17;48.42;94742.31;4950217;28;20206;-84
2022/07/25 08:25:09;;;;;;;10.23;8.70;;;;;;;27.21;49.01;94736.03;4944403;28;20205;-86
2022/07/25 08:27:37;;;;;;;12.00;9.15;;;;;;;27.39;48.53;94753.53;4953288;28;20220;-86
2022/07/25 08:30:05;;;;;;;10.20;9.10;;;;;;;27.39;47.98;94761.53;4952146;28;20321;-86
2022/07/25 08:32:32;;;;;;;10.40;8.55;;;;;;;27.40;48.16;94746.31;4952592;28;20208;-85
2022/07/25 08:35:00;;;;;;;11.93;9.00;;;;;;;27.53;46.91;94745.34;4952798;28;20220;-86
2022/07/25 08:37:28;;;;;;;12.60;9.02;;;;;;;27.54;47.04;94733.53;4954823;28;20205;-86
2022/07/25 08:39:55;;;;;;;9.75;8.60;;;;;;;27.78;45.73;94744.41;4957400;28;20206;-85
2022/07/25 08:42:23;;;;;;;10.32;8.23;;;;;;;27.88;45.93;94744.03;4955903;28;20659;-84
2022/07/25 08:44:58;;;;;;;11.77;9.25;;;;;;;27.96;46.03;94745.09;4956033;28;20202;-85
2022/07/25 08:47:27;;;;;;;9.63;8.48;;;;;;;27.91;45.69;94746.06;4950714;28;20648;-86
2022/07/25 08:49:56;;;;;;;10.48;7.88;;;;;;;27.85;46.07;94735.91;4956662;28;20233;-85
2022/07/25 08:52:23;;;;;;;11.02;7.90;;;;;;;27.96;47.08;94739.75;4957631;28;20237;-85
2022/07/25 08:54:51;;;;;;;10.60;8.68;;;;;;;28.06;45.89;94734.81;4964836;28;20666;-85
2022/07/25 08:57:18;;;;;;;9.90;8.32;;;;;;;28.16;45.84;94736.34;4966388;28;20232;-85
2022/07/25 08:59:46;;;;;;;12.23;8.55;;;;;;;28.44;44.85;94748.06;4960847;28;20216;-85
2022/07/25 09:02:13;;;;;;;11.50;8.52;;;;;;;28.58;44.87;94740.53;4957781;28;20209;-83
2022/07/25 09:04:42;;;;;;;9.18;8.23;;;;;;;28.54;43.29;94741.53;4957861;28;20201;-85
2022/07/25 09:07:09;;;;;;;11.10;8.68;;;;;;;28.46;44.36;94737.81;4955470;28;20648;-81
2022/07/25 09:09:38;;;;;;;9.07;8.18;;;;;;;28.41;44.57;94731.88;4953582;28;20728;-83
2022/07/25 09:12:07;;;;;;;12.40;8.82;;;;;;;28.37;45.28;94721.03;4958759;28;20603;-86
2022/07/25 09:14:41;;;;;;;10.70;8.32;;;;;;;28.42;44.33;94717.41;4959356;28;20710;-84
2022/07/25 09:17:10;;;;;;;17.25;8.65;;;;;;;28.53;44.74;94710.53;4958041;28;20296;-83
2022/07/25 09:19:37;;;;;;;11.25;8.63;;;;;;;28.63;44.19;94720.81;4957757;28;20225;-84
2022/07/25 09:22:06;;;;;;;13.45;8.70;;;;;;;28.53;43.89;94719.34;4966794;28;20209;-84
2022/07/25 09:24:34;;;;;;;9.48;8.57;;;;;;;28.56;44.68;94710.66;4960004;28;20225;-84
2022/07/25 09:27:08;;;;;;;8.63;7.78;;;;;;;28.74;44.74;94708.63;4957597;28;20213;-84
2022/07/25 09:29:36;;;;;;;10.20;8.63;;;;;;;28.97;43.33;94715.16;4957928;28;20248;-85
2022/07/25 09:32:17;;;;;;;11.30;8.23;;;;;;;29.04;43.28;94710.00;4969106;28;20703;-84
2022/07/25 09:34:45;;;;;;;10.23;8.60;;;;;;;29.22;42.08;94711.41;4953441;28;20207;-84
2022/07/25 09:37:14;;;;;;;11.10;8.60;;;;;;;29.31;41.56;94719.34;4959385;28;20695;-82
2022/07/25 09:39:42;;;;;;;10.65;8.27;;;;;;;29.15;41.10;94721.06;4960458;28;20290;-84
2022/07/25 09:42:21;;;;;;;12.43;8.20;;;;;;;28.86;42.13;94713.97;4959965;28;20596;-83
2022/07/25 09:45:03;;;;;;;10.25;8.45;;;;;;;28.68;43.05;94710.72;4956137;28;20209;-83
2022/07/25 09:47:34;;;;;;;9.02;8.10;;;;;;;28.66;43.33;94712.94;4961618;28;20236;-84
2022/07/25 09:50:01;;;;;;;8.77;7.85;;;;;;;28.72;43.49;94697.44;4961356;28;20224;-82
2022/07/25 09:52:28;;;;;;;8.98;8.07;;;;;;;29.05;43.17;94711.59;4956087;28;20235;-83
2022/07/25 09:54:55;;;;;;;9.15;8.15;;;;;;;29.42;42.46;94706.28;4957073;28;20216;-83
2022/07/25 09:57:22;;;;;;;8.63;7.82;;;;;;;29.89;41.19;94703.91;4954582;28;20256;-83
2022/07/25 09:59:50;;;;;;;8.52;7.63;;;;;;;30.16;40.24;94708.56;4956677;28;20206;-82
2022/07/25 10:02:32;;;;;;;10.30;8.30;;;;;;;30.25;39.53;94709.97;4955272;28;20675;-82
2022/07/25 10:05:12;;;;;;;9.13;8.18;;;;;;;30.25;38.85;94715.31;4952000;28;20653;-82
2022/07/25 10:07:41;;;;;;;11.68;8.20;;;;;;;30.24;39.09;94702.28;4952591;28;20209;-82
2022/07/25 10:10:08;;;;;;;7.88;7.07;;;;;;;30.06;39.22;94693.72;4954727;28;20229;-81
2022/07/25 10:12:37;;;;;;;8.70;7.80;;;;;;;30.03;39.32;94690.94;4955042;28;20213;-82
2022/07/25 10:15:09;;;;;;;8.32;7.50;;;;;;;30.25;39.49;94695.75;4953223;28;21026;-83
2022/07/25 10:17:37;;;;;;;8.48;7.43;;;;;;;30.59;39.22;94703.25;4952278;28;20210;-82
2022/07/25 10:20:08;;;;;;;10.10;7.88;;;;;;;30.88;37.65;94697.50;4953242;28;20205;-81
2022/07/25 10:22:40;;;;;;;9.15;7.68;;;;;;;30.97;37.80;94693.94;4955618;28;20224;-81
2022/07/25 10:25:12;;;;;;;10.57;7.40;;;;;;;31.02;37.79;94693.66;4954540;28;20218;-83
2022/07/25 10:27:47;;;;;;;8.40;7.60;;;;;;;30.96;37.95;94695.84;4954589;28;20241;-83
2022/07/25 10:30:25;;;;;;;9.05;7.43;;;;;;;30.80;38.29;94690.41;4950529;28;20247;-83
2022/07/25 10:32:57;;;;;;;8.55;7.65;;;;;;;30.68;38.45;94692.38;4950618;28;20203;-82
2022/07/25 10:35:26;;;;;;;8.38;7.57;;;;;;;30.64;38.42;94691.50;4952640;28;20233;-82
2022/07/25 10:37:55;;;;;;;11.18;8.07;;;;;;;30.45;37.63;94686.78;4955879;28;20613;-83
2022/07/25 10:40:30;;;;;;;7.93;7.22;;;;;;;30.35;38.02;94685.34;4954543;28;20212;-82
2022/07/25 10:43:01;;;;;;;9.20;7.32;;;;;;;30.29;38.16;94684.03;4950891;28;20212;-82
2022/07/25 10:45:38;;;;;;;10.88;7.40;;;;;;;30.32;37.91;94683.34;4955179;28;20602;-82
2022/07/25 10:48:11;;;;;;;10.88;7.65;;;;;;;30.71;37.40;94681.72;4953745;28;20854;-82
2022/07/25 10:50:52;;;;;;;7.78;6.80;;;;;;;31.08;35.76;94670.78;4954077;28;20249;-84
2022/07/25 10:53:32;;;;;;;7.70;6.57;;;;;;;31.29;35.81;94673.97;4950445;28;20627;-82
2022/07/25 10:56:04;;;;;;;8.23;6.68;;;;;;;31.59;35.26;94675.09;4954357;28;20233;-82
2022/07/25 10:58:49;;;;;;;8.30;6.72;;;;;;;31.90;34.49;94672.34;4952069;28;20208;-84
2022/07/25 11:01:21;;;;;;;7.03;6.32;;;;;;;32.25;32.52;94680.38;4950723;28;20237;-83
2022/07/25 11:03:49;;;;;;;7.10;6.40;;;;;;;32.16;32.15;94671.75;4950634;28;20206;-85
2022/07/25 11:06:28;;;;;;;7.03;6.32;;;;;;;31.98;32.84;94667.88;4954443;28;20201;-85
2022/07/25 11:08:58;;;;;;;8.10;7.22;;;;;;;31.77;33.16;94670.13;4955395;28;20204;-84
2022/07/25 11:11:33;;;;;;;8.90;6.88;;;;;;;31.71;33.50;94672.31;4949831;28;20241;-84
2022/07/25 11:14:00;;;;;;;9.00;6.75;;;;;;;32.05;33.27;94668.06;4955023;28;20207;-85
2022/07/25 11:16:28;;;;;;;7.82;6.63;;;;;;;32.43;32.67;94667.28;4956110;28;20232;-84
2022/07/25 11:18:55;;;;;;;7.20;6.55;;;;;;;32.73;32.52;94660.16;4952483;28;20210;-85
2022/07/25 11:21:23;;;;;;;7.78;6.97;;;;;;;32.73;32.34;94660.16;4950842;28;20209;-85
2022/07/25 11:23:51;;;;;;;11.05;6.70;;;;;;;32.95;32.99;94658.63;4951525;28;20209;-86
2022/07/25 11:26:18;;;;;;;7.97;6.30;;;;;;;33.22;32.25;94646.03;4954160;28;20212;-85
2022/07/25 11:28:46;;;;;;;7.70;6.88;;;;;;;33.56;31.53;94653.09;4949626;28;20220;-86
2022/07/25 11:31:15;;;;;;;7.50;6.70;;;;;;;33.83;31.18;94659.25;4953007;28;20200;-84
2022/07/25 11:33:44;;;;;;;7.93;6.32;;;;;;;33.96;30.32;94661.38;4951157;28;20216;-86
2022/07/25 11:36:11;;;;;;;8.57;6.55;;;;;;;34.12;29.75;94650.41;4953718;28;20213;-85